Time;durP1;ratioP1;P1;durP2;ratioP2;P2;SDS_P1;SDS_P2;PMS_P1;PMS_P2;Temp;Humidity;BMP_temperature;BMP_pressure;BME280_temperature;BME280_humidity;BME280_pressure;Samples;Min_cycle;Max_cycle;Signal;HPM_P1;HPM_P2
2022/03/07 00:02:16;;;;;;;38.70;18.70;;;;;;;-0.72;58.32;101025.38;52919;1270;1016655;-77
2022/03/07 00:04:49;;;;;;;38.10;19.90;;;;;;;-0.71;58.37;101027.58;52857;1270;1015973;-76
2022/03/07 00:07:20;;;;;;;41.00;19.20;;;;;;;-0.72;58.20;101027.34;52521;1268;1016288;-76
2022/03/07 00:09:51;;;;;;;41.90;19.20;;;;;;;-0.72;58.16;101027.73;52900;1270;1016689;-76
2022/03/07 00:12:23;;;;;;;42.70;19.20;;;;;;;-0.71;58.08;101027.73;52791;1270;1016618;-77
2022/03/07 00:14:54;;;;;;;43.40;18.50;;;;;;;-0.70;58.05;101028.45;52790;1270;1019397;-77
2022/03/07 00:17:25;;;;;;;44.20;19.30;;;;;;;-0.69;58.03;101031.04;52868;1270;1017941;-77
2022/03/07 00:19:56;;;;;;;42.20;20.00;;;;;;;-0.69;58.16;101026.58;52799;1270;1016325;-77
2022/03/07 00:22:28;;;;;;;45.00;20.30;;;;;;;-0.69;57.98;101028.21;52873;1270;1015993;-78
2022/03/07 00:24:59;;;;;;;45.90;20.60;;;;;;;-0.69;57.98;101029.08;52858;1270;1016361;-76
2022/03/07 00:27:30;;;;;;;38.70;20.10;;;;;;;-0.70;57.74;101031.27;52791;1270;1016974;-77
2022/03/07 00:30:02;;;;;;;33.30;15.70;;;;;;;-0.71;57.55;101034.86;52864;1270;1016384;-77
2022/03/07 00:32:33;;;;;;;29.00;13.70;;;;;;;-0.75;57.62;101030.05;52891;1270;1018396;-76
2022/03/07 00:35:05;;;;;;;31.00;14.50;;;;;;;-0.80;57.75;101030.43;52768;1270;1016597;-76
2022/03/07 00:37:37;;;;;;;30.10;13.80;;;;;;;-0.84;57.78;101029.94;52836;1270;1016521;-77
2022/03/07 00:40:10;;;;;;;32.50;14.20;;;;;;;-0.89;58.12;101028.11;52876;1270;1016674;-76
2022/03/07 00:42:41;;;;;;;32.90;15.40;;;;;;;-0.94;58.13;101024.08;52833;1270;1016546;-77
2022/03/07 00:45:12;;;;;;;31.10;14.60;;;;;;;-0.97;57.84;101026.49;52880;1270;1016312;-75
2022/03/07 00:47:44;;;;;;;32.80;14.10;;;;;;;-0.99;57.85;101026.09;52889;1270;1015748;-75
2022/03/07 00:50:16;;;;;;;34.10;15.90;;;;;;;-1.02;57.83;101029.27;52916;1270;1016286;-75
2022/03/07 00:52:47;;;;;;;36.40;16.10;;;;;;;-1.04;57.91;101026.20;52758;1270;1015704;-76
2022/03/07 00:55:18;;;;;;;37.30;17.20;;;;;;;-1.06;58.25;101025.09;52862;1270;1016510;-75
2022/03/07 00:57:49;;;;;;;35.80;16.90;;;;;;;-1.08;58.46;101024.77;52800;1270;1016342;-76
2022/03/07 01:00:20;;;;;;;38.90;17.30;;;;;;;-1.11;58.48;101018.89;52878;1270;1016721;-76
2022/03/07 01:02:52;;;;;;;37.30;16.50;;;;;;;-1.12;58.53;101015.58;52763;1270;1016237;-76
2022/03/07 01:05:23;;;;;;;38.00;17.10;;;;;;;-1.13;58.54;101018.70;52909;1270;1016401;-76
2022/03/07 01:07:55;;;;;;;32.80;15.50;;;;;;;-1.14;58.62;101016.19;52843;1270;1016005;-76
2022/03/07 01:10:27;;;;;;;36.90;16.10;;;;;;;-1.15;58.66;101018.22;52763;1270;1016223;-76
2022/03/07 01:13:00;;;;;;;37.90;15.70;;;;;;;-1.16;58.77;101023.54;52883;1270;1016385;-76
2022/03/07 01:15:31;;;;;;;39.30;16.60;;;;;;;-1.16;58.72;101025.02;53279;1265;1016195;-75
2022/03/07 01:18:04;;;;;;;40.60;16.50;;;;;;;-1.17;59.05;101020.33;53086;1270;1016842;-75
2022/03/07 01:20:35;;;;;;;32.10;13.90;;;;;;;-1.18;58.98;101018.76;53135;1271;1016453;-76
2022/03/07 01:23:06;;;;;;;38.80;17.60;;;;;;;-1.19;59.07;101009.98;53017;1270;1016386;-77
2022/03/07 01:25:37;;;;;;;43.00;18.10;;;;;;;-1.19;59.23;101011.61;53094;1270;1016483;-76
2022/03/07 01:28:08;;;;;;;40.70;18.70;;;;;;;-1.18;59.06;101003.33;53037;1270;1015741;-76
2022/03/07 01:30:40;;;;;;;35.20;16.60;;;;;;;-1.16;59.09;101007.09;53128;1270;1018278;-76
2022/03/07 01:33:11;;;;;;;38.50;15.80;;;;;;;-1.17;59.16;101006.77;53067;1270;1016189;-76
2022/03/07 01:35:42;;;;;;;39.30;18.00;;;;;;;-1.18;59.27;101002.70;53025;1270;1015905;-75
2022/03/07 01:38:13;;;;;;;36.40;17.40;;;;;;;-1.19;59.48;100998.45;52966;1270;1016384;-76
2022/03/07 01:40:45;;;;;;;40.40;17.30;;;;;;;-1.21;59.28;100999.88;53043;1270;1016240;-74
2022/03/07 01:43:16;;;;;;;45.50;18.10;;;;;;;-1.22;59.42;100992.42;53052;1270;1016362;-76
2022/03/07 01:45:48;;;;;;;45.40;19.30;;;;;;;-1.22;59.57;100985.38;53123;1270;1019906;-76
2022/03/07 01:48:19;;;;;;;43.90;19.30;;;;;;;-1.21;59.56;100984.20;52983;1270;1016156;-76
2022/03/07 01:50:51;;;;;;;42.60;17.60;;;;;;;-1.20;59.43;100988.05;53131;1270;1016241;-76
2022/03/07 01:53:24;;;;;;;40.00;18.60;;;;;;;-1.19;59.57;100978.89;53096;1270;1015835;-76
2022/03/07 01:55:57;;;;;;;43.20;17.80;;;;;;;-1.18;59.51;100971.86;53076;1270;1016549;-77
2022/03/07 01:58:28;;;;;;;39.30;19.30;;;;;;;-1.15;59.54;100972.66;53102;1270;1015975;-76
2022/03/07 02:00:59;;;;;;;37.90;17.30;;;;;;;-1.12;59.50;100974.24;53037;1270;1016437;-77
2022/03/07 02:03:30;;;;;;;38.30;18.50;;;;;;;-1.11;59.48;100969.88;53041;1270;1016701;-75
2022/03/07 02:06:02;;;;;;;46.00;20.20;;;;;;;-1.08;59.63;100968.56;52908;1270;1016300;-75
2022/03/07 02:08:34;;;;;;;35.50;16.40;;;;;;;-1.06;59.50;100965.05;52900;1271;1018248;-76
2022/03/07 02:11:05;;;;;;;35.80;17.00;;;;;;;-1.03;59.50;100968.51;53001;1270;1016663;-74
2022/03/07 02:13:37;;;;;;;40.70;17.90;;;;;;;-1.01;59.54;100960.77;53104;1270;1016450;-76
2022/03/07 02:16:09;;;;;;;36.80;17.10;;;;;;;-0.98;59.52;100955.30;52957;1270;1016338;-75
2022/03/07 02:18:42;;;;;;;40.20;19.70;;;;;;;-0.96;59.44;100956.02;53050;1270;1018587;-75
2022/03/07 02:21:16;;;;;;;44.30;19.50;;;;;;;-0.94;59.44;100957.90;52992;1270;1016480;-74
2022/03/07 02:23:48;;;;;;;39.90;18.80;;;;;;;-0.92;59.54;100962.30;53082;1270;1015883;-76
2022/03/07 02:26:21;;;;;;;43.90;18.80;;;;;;;-0.90;59.58;100960.20;52971;1270;1016253;-76
2022/03/07 02:28:53;;;;;;;40.80;17.90;;;;;;;-0.89;59.64;100957.38;52987;1270;1016412;-77
2022/03/07 02:31:24;;;;;;;51.40;20.40;;;;;;;-0.89;59.91;100954.25;52980;1270;1018939;-76
2022/03/07 02:33:55;;;;;;;42.50;18.30;;;;;;;-0.89;59.93;100952.77;53238;1270;1016321;-76
2022/03/07 02:36:27;;;;;;;37.40;17.80;;;;;;;-0.88;59.89;100958.88;53201;1270;1016219;-76
2022/03/07 02:38:58;;;;;;;38.20;18.20;;;;;;;-0.89;60.02;100968.50;53043;1270;1016141;-76
2022/03/07 02:41:29;;;;;;;45.00;19.30;;;;;;;-0.90;60.18;100965.77;53136;1270;1016238;-75
2022/03/07 02:44:00;;;;;;;42.30;18.60;;;;;;;-0.89;60.58;100961.52;53047;1270;1018318;-77
2022/03/07 02:46:32;;;;;;;38.50;17.70;;;;;;;-0.90;60.84;100963.80;52891;1268;1015933;-75
2022/03/07 02:49:04;;;;;;;39.80;17.40;;;;;;;-0.93;60.91;100965.50;53040;1270;1016165;-76
2022/03/07 02:51:35;;;;;;;39.90;17.50;;;;;;;-0.98;60.97;100967.98;53165;1270;1016267;-75
2022/03/07 02:54:08;;;;;;;37.30;16.80;;;;;;;-1.00;60.84;100971.66;52970;1271;1016262;-76
2022/03/07 02:56:39;;;;;;;33.50;14.70;;;;;;;-1.04;60.76;100962.72;53131;1270;1016121;-74
2022/03/07 02:59:10;;;;;;;35.60;15.60;;;;;;;-1.06;60.78;100963.17;53043;1270;1018168;-75
2022/03/07 03:01:43;;;;;;;36.50;16.20;;;;;;;-1.09;60.94;100962.61;53108;1270;1015972;-77
2022/03/07 03:04:14;;;;;;;37.60;16.50;;;;;;;-1.12;60.84;100951.54;53106;1270;1016752;-76
2022/03/07 03:06:45;;;;;;;37.30;16.80;;;;;;;-1.12;60.75;100959.52;52993;1270;1016006;-77
2022/03/07 03:09:16;;;;;;;35.80;15.00;;;;;;;-1.15;60.95;100960.93;52927;1270;1016697;-77
2022/03/07 03:11:48;;;;;;;36.30;14.80;;;;;;;-1.18;60.84;100950.33;53070;1270;1016125;-77
2022/03/07 03:14:19;;;;;;;34.00;14.80;;;;;;;-1.20;60.94;100951.73;53003;1270;1017438;-77
2022/03/07 03:16:51;;;;;;;33.40;15.10;;;;;;;-1.20;61.15;100949.23;53040;1270;1016095;-76
2022/03/07 03:19:22;;;;;;;29.00;12.00;;;;;;;-1.22;61.22;100952.98;53079;1270;1016578;-76
2022/03/07 03:21:53;;;;;;;32.90;14.30;;;;;;;-1.24;61.23;100946.08;52948;1270;1018976;-76
2022/03/07 03:24:24;;;;;;;33.60;15.10;;;;;;;-1.25;61.40;100948.10;53073;1270;1015941;-77
2022/03/07 03:26:55;;;;;;;37.70;15.00;;;;;;;-1.27;61.57;100951.14;52911;1270;1016168;-76
2022/03/07 03:29:27;;;;;;;37.00;15.30;;;;;;;-1.30;61.62;100946.73;53057;1270;1019506;-78
2022/03/07 03:31:58;;;;;;;33.20;13.90;;;;;;;-1.32;61.75;100938.04;52994;1270;1016659;-77
2022/03/07 03:34:29;;;;;;;37.10;15.60;;;;;;;-1.31;61.66;100941.02;52973;1270;1016510;-77
2022/03/07 03:37:01;;;;;;;34.10;12.60;;;;;;;-1.32;61.82;100941.80;52960;1270;1016305;-77
2022/03/07 03:39:32;;;;;;;36.10;13.90;;;;;;;-1.33;61.83;100942.98;52963;1270;1016190;-76
2022/03/07 03:42:04;;;;;;;36.00;15.60;;;;;;;-1.33;61.77;100940.00;53038;1270;1018980;-76
2022/03/07 03:44:36;;;;;;;35.50;15.60;;;;;;;-1.33;61.94;100929.90;53033;1270;1016392;-77
2022/03/07 03:47:07;;;;;;;32.80;14.90;;;;;;;-1.31;61.89;100929.28;53058;1270;1018344;-77
2022/03/07 03:49:39;;;;;;;35.10;16.10;;;;;;;-1.29;61.95;100929.38;53028;1270;1016592;-76
2022/03/07 03:52:11;;;;;;;36.80;15.60;;;;;;;-1.27;62.02;100931.66;52953;1270;1016075;-78
2022/03/07 03:54:42;;;;;;;29.70;12.70;;;;;;;-1.27;62.03;100929.86;52901;1270;1016384;-77
2022/03/07 03:57:13;;;;;;;32.60;13.50;;;;;;;-1.27;62.04;100933.69;52983;1270;1018024;-77
2022/03/07 03:59:44;;;;;;;37.60;15.00;;;;;;;-1.27;62.18;100932.44;53007;1270;1016517;-77
2022/03/07 04:02:15;;;;;;;39.80;15.50;;;;;;;-1.27;62.11;100933.54;53076;1270;1019329;-77
2022/03/07 04:04:46;;;;;;;40.50;17.30;;;;;;;-1.25;62.27;100933.39;53010;1270;1016624;-76
2022/03/07 04:07:17;;;;;;;36.20;15.20;;;;;;;-1.25;62.41;100933.46;53114;1270;1016304;-77
2022/03/07 04:09:49;;;;;;;36.30;15.70;;;;;;;-1.26;62.55;100936.67;53033;1270;1016579;-77
2022/03/07 04:12:21;;;;;;;37.20;15.10;;;;;;;-1.25;62.69;100938.24;53057;1270;1015754;-77
2022/03/07 04:14:53;;;;;;;40.10;13.60;;;;;;;-1.26;62.81;100935.03;53114;1270;1016770;-77
2022/03/07 04:17:24;;;;;;;36.10;15.60;;;;;;;-1.25;62.90;100928.92;53057;1270;1015933;-76
2022/03/07 04:19:55;;;;;;;36.10;14.60;;;;;;;-1.24;62.84;100931.45;52980;1270;1016358;-76
2022/03/07 04:22:26;;;;;;;38.80;14.50;;;;;;;-1.23;62.86;100932.08;53114;1270;1016350;-78
2022/03/07 04:24:57;;;;;;;36.20;15.50;;;;;;;-1.22;62.98;100933.16;53012;1270;1016434;-78
2022/03/07 04:27:29;;;;;;;36.20;15.20;;;;;;;-1.21;62.97;100929.35;52998;1270;1015847;-77
2022/03/07 04:30:03;;;;;;;34.50;14.20;;;;;;;-1.20;63.02;100932.09;53050;1270;1016319;-76
2022/03/07 04:32:36;;;;;;;37.30;14.90;;;;;;;-1.19;63.04;100932.02;53017;1270;1016341;-77
2022/03/07 04:35:12;;;;;;;40.80;14.40;;;;;;;-1.18;63.11;100928.96;53049;1270;1018643;-76
2022/03/07 04:37:43;;;;;;;37.10;14.30;;;;;;;-1.16;63.08;100930.92;53031;1270;1015820;-77
2022/03/07 04:40:17;;;;;;;33.30;13.00;;;;;;;-1.16;63.23;100931.71;53052;1270;1016289;-77
2022/03/07 04:42:48;;;;;;;37.80;15.60;;;;;;;-1.16;63.34;100937.20;53101;1270;1019292;-75
2022/03/07 04:45:20;;;;;;;30.60;13.00;;;;;;;-1.17;63.60;100933.82;53074;1270;1017512;-76
2022/03/07 04:47:51;;;;;;;34.60;12.90;;;;;;;-1.19;63.62;100933.82;53128;1270;1016472;-77
2022/03/07 04:50:23;;;;;;;32.20;13.70;;;;;;;-1.19;63.71;100932.25;53013;1270;1015980;-76
2022/03/07 04:52:54;;;;;;;33.10;12.20;;;;;;;-1.20;63.85;100934.91;53008;1270;1020279;-76
2022/03/07 04:55:26;;;;;;;33.80;13.40;;;;;;;-1.22;64.06;100933.48;53052;1271;1016758;-77
2022/03/07 04:57:57;;;;;;;32.00;13.00;;;;;;;-1.24;64.12;100937.94;53055;1270;1016927;-73
2022/03/07 05:00:28;;;;;;;30.90;12.00;;;;;;;-1.26;64.28;100938.39;52898;1271;1016487;-75
2022/03/07 05:03:00;;;;;;;30.30;12.20;;;;;;;-1.27;64.59;100948.95;53004;1270;1016306;-75
2022/03/07 05:05:31;;;;;;;27.90;11.50;;;;;;;-1.30;64.85;100952.84;52952;1270;1016674;-75
2022/03/07 05:08:03;;;;;;;28.60;11.10;;;;;;;-1.30;64.61;100951.51;52970;1270;1016246;-75
2022/03/07 05:10:34;;;;;;;28.30;10.80;;;;;;;-1.31;64.74;100950.33;53012;1270;1016436;-75
2022/03/07 05:13:06;;;;;;;30.50;13.00;;;;;;;-1.32;64.81;100953.53;52994;1273;1016603;-75
2022/03/07 05:15:37;;;;;;;32.30;11.80;;;;;;;-1.32;64.99;100952.27;52920;1270;1016653;-75
2022/03/07 05:18:08;;;;;;;27.70;10.50;;;;;;;-1.32;65.34;100958.77;53077;1270;1017490;-74
2022/03/07 05:20:40;;;;;;;28.60;11.70;;;;;;;-1.33;65.21;100961.11;53049;1270;1016519;-74
2022/03/07 05:23:11;;;;;;;29.50;11.30;;;;;;;-1.34;65.29;100964.16;52961;1270;1016567;-75
2022/03/07 05:25:42;;;;;;;28.00;11.40;;;;;;;-1.34;65.61;100961.81;53044;1270;1018441;-75
2022/03/07 05:28:13;;;;;;;30.20;11.90;;;;;;;-1.36;65.67;100957.65;52935;1270;1016384;-76
2022/03/07 05:30:45;;;;;;;30.00;11.50;;;;;;;-1.36;65.75;100962.27;52945;1270;1016187;-74
2022/03/07 05:33:17;;;;;;;27.80;11.30;;;;;;;-1.37;66.01;100962.90;53039;1270;1016607;-76
2022/03/07 05:35:49;;;;;;;33.00;11.60;;;;;;;-1.38;65.85;100963.43;53044;1270;1018238;-76
2022/03/07 05:38:21;;;;;;;31.40;11.80;;;;;;;-1.38;65.94;100964.45;53052;1270;1016064;-75
2022/03/07 05:40:52;;;;;;;27.10;11.20;;;;;;;-1.37;66.06;100969.08;53202;1270;1016848;-76
2022/03/07 05:43:24;;;;;;;28.10;10.50;;;;;;;-1.37;66.23;100970.56;52980;1272;1016362;-75
2022/03/07 05:45:56;;;;;;;30.60;10.90;;;;;;;-1.37;66.26;100971.83;52994;1272;1016383;-76
2022/03/07 05:48:27;;;;;;;34.70;12.40;;;;;;;-1.36;66.50;100975.42;53056;1270;1016248;-74
2022/03/07 05:50:59;;;;;;;26.70;9.70;;;;;;;-1.35;66.67;100981.38;52961;1270;1018682;-75
2022/03/07 05:53:30;;;;;;;30.70;11.10;;;;;;;-1.35;66.77;100982.39;52998;1270;1016215;-74
2022/03/07 05:56:01;;;;;;;29.70;10.60;;;;;;;-1.34;66.86;100984.43;53104;1270;1016575;-75
2022/03/07 05:58:34;;;;;;;26.90;10.10;;;;;;;-1.33;67.10;100986.63;52841;1270;1016410;-76
2022/03/07 06:01:05;;;;;;;28.90;12.00;;;;;;;-1.33;67.21;100986.09;53141;1270;1016353;-74
2022/03/07 06:03:36;;;;;;;34.30;12.90;;;;;;;-1.31;67.18;100985.55;52974;1270;1016189;-74
2022/03/07 06:06:07;;;;;;;26.50;10.30;;;;;;;-1.30;67.25;100981.95;53047;1270;1016399;-75
2022/03/07 06:08:39;;;;;;;29.40;11.80;;;;;;;-1.28;67.37;100989.80;52911;1270;1015951;-75
2022/03/07 06:11:10;;;;;;;33.00;11.00;;;;;;;-1.28;67.49;100990.51;52939;1270;1016521;-75
2022/03/07 06:13:41;;;;;;;28.60;10.20;;;;;;;-1.27;67.43;100991.84;53100;1270;1016608;-75
2022/03/07 06:16:13;;;;;;;25.60;10.00;;;;;;;-1.27;67.70;100992.39;52861;1271;1018224;-73
2022/03/07 06:18:45;;;;;;;28.50;10.90;;;;;;;-1.27;67.74;100992.85;53025;1270;1017277;-74
2022/03/07 06:21:17;;;;;;;28.10;10.80;;;;;;;-1.27;67.86;100992.23;52979;1270;1020302;-74
2022/03/07 06:23:48;;;;;;;23.00;9.40;;;;;;;-1.26;67.96;100993.27;53033;1270;1016471;-74
2022/03/07 06:26:19;;;;;;;27.20;9.70;;;;;;;-1.22;68.16;100989.29;52928;1270;1016209;-74
2022/03/07 06:28:50;;;;;;;26.50;10.20;;;;;;;-1.19;68.30;100992.60;53028;1270;1016341;-74
2022/03/07 06:31:22;;;;;;;24.70;8.30;;;;;;;-1.15;68.57;100992.31;52977;1270;1019375;-74
2022/03/07 06:33:53;;;;;;;27.10;9.80;;;;;;;-1.11;68.64;100990.46;53113;1270;1016104;-75
2022/03/07 06:36:25;;;;;;;23.20;8.00;;;;;;;-1.06;68.91;100991.28;53195;1270;1016419;-76
2022/03/07 06:38:57;;;;;;;26.00;8.80;;;;;;;-1.02;69.24;100995.91;53131;1271;1016086;-74
2022/03/07 06:41:28;;;;;;;29.40;9.50;;;;;;;-0.99;69.50;100991.01;52950;1270;1016043;-73
2022/03/07 06:44:00;;;;;;;24.20;8.60;;;;;;;-0.94;69.45;100992.98;52943;1270;1016679;-74
2022/03/07 06:46:32;;;;;;;27.90;8.40;;;;;;;-0.92;69.85;100991.45;52946;1270;1018631;-75
2022/03/07 06:49:05;;;;;;;26.00;9.50;;;;;;;-0.90;69.51;100991.52;53046;1270;1016704;-74
2022/03/07 06:51:37;;;;;;;27.70;8.50;;;;;;;-0.89;69.71;100994.13;52922;1270;1016462;-74
2022/03/07 06:54:09;;;;;;;28.90;8.50;;;;;;;-0.88;69.82;100991.93;52981;1270;1016028;-74
2022/03/07 06:56:40;;;;;;;23.40;8.00;;;;;;;-0.85;69.97;100996.48;52864;1270;1016402;-73
2022/03/07 06:59:11;;;;;;;23.50;8.30;;;;;;;-0.82;69.83;100995.95;53019;1270;1017671;-73
2022/03/07 07:01:42;;;;;;;21.00;8.50;;;;;;;-0.78;70.09;100997.77;52884;1270;1016610;-73
2022/03/07 07:04:14;;;;;;;25.80;7.10;;;;;;;-0.72;70.47;100999.05;52948;1273;1016672;-73
2022/03/07 07:06:45;;;;;;;25.30;8.30;;;;;;;-0.69;70.26;100997.04;52858;1273;1016670;-73
2022/03/07 07:09:19;;;;;;;20.80;8.10;;;;;;;-0.63;70.38;100997.69;52855;1270;1016408;-73
2022/03/07 07:11:51;;;;;;;23.50;9.00;;;;;;;-0.56;70.53;100996.48;52854;1271;1016695;-73
2022/03/07 07:14:23;;;;;;;17.60;5.70;;;;;;;-0.48;70.65;100996.42;53072;1271;1016565;-74
2022/03/07 07:16:55;;;;;;;16.70;5.70;;;;;;;-0.42;70.62;100998.25;53234;1270;1018878;-73
2022/03/07 07:19:27;;;;;;;19.60;6.00;;;;;;;-0.35;70.69;101000.86;53054;1270;1017031;-73
2022/03/07 07:21:58;;;;;;;19.40;5.70;;;;;;;-0.29;70.80;100996.41;53073;1271;1016274;-73
2022/03/07 07:24:29;;;;;;;16.90;5.70;;;;;;;-0.23;71.22;100999.71;52903;1270;1016381;-74
2022/03/07 07:27:00;;;;;;;23.60;6.60;;;;;;;-0.17;71.00;101001.47;52883;1270;1018545;-73
2022/03/07 07:29:33;;;;;;;19.40;5.40;;;;;;;-0.10;71.11;100989.25;53015;1270;1017164;-73
2022/03/07 07:32:05;;;;;;;21.40;6.70;;;;;;;-0.03;70.96;100982.29;53078;1270;1015968;-75
2022/03/07 07:34:36;;;;;;;22.50;7.10;;;;;;;0.04;70.79;100983.16;52955;1270;1016724;-74
2022/03/07 07:37:08;;;;;;;19.90;7.00;;;;;;;0.11;70.81;100980.73;52901;1271;1016300;-74
2022/03/07 07:39:39;;;;;;;21.80;7.00;;;;;;;0.19;70.51;100978.08;52929;1270;1016201;-73
2022/03/07 07:42:11;;;;;;;22.30;7.30;;;;;;;0.24;70.54;100972.98;52930;1270;1016254;-73
2022/03/07 07:44:43;;;;;;;24.90;8.10;;;;;;;0.31;70.67;100973.93;52948;1271;1016180;-72
2022/03/07 07:47:14;;;;;;;16.00;5.80;;;;;;;0.38;70.53;100966.48;53018;1270;1016338;-74
2022/03/07 07:49:45;;;;;;;19.90;5.70;;;;;;;0.44;70.83;100964.59;52967;1271;1016674;-73
2022/03/07 07:52:17;;;;;;;16.70;5.10;;;;;;;0.53;70.89;100971.73;52950;1270;1016517;-73
2022/03/07 07:54:48;;;;;;;15.40;4.30;;;;;;;0.60;70.73;100975.57;52927;1271;1016075;-72
2022/03/07 07:57:20;;;;;;;19.50;5.30;;;;;;;0.66;70.56;100979.26;52992;1271;1016779;-73
2022/03/07 07:59:52;;;;;;;21.60;6.50;;;;;;;0.69;70.88;100977.20;53010;1270;1016567;-74
2022/03/07 08:02:23;;;;;;;22.60;7.10;;;;;;;0.71;71.17;100987.24;53027;1270;1016590;-73
2022/03/07 08:04:55;;;;;;;23.90;6.40;;;;;;;0.74;71.06;100984.67;52932;1269;1016219;-72
2022/03/07 08:07:27;;;;;;;20.90;6.50;;;;;;;0.78;70.96;100986.00;52827;1271;1016405;-73
2022/03/07 08:09:59;;;;;;;20.00;6.70;;;;;;;0.82;70.84;100987.34;52912;1270;1016384;-73
2022/03/07 08:12:30;;;;;;;24.70;6.20;;;;;;;0.85;70.96;100987.79;52843;1270;1018806;-73
2022/03/07 08:15:05;;;;;;;23.90;5.50;;;;;;;0.90;71.02;100988.65;52951;1270;1016021;-73
2022/03/07 08:17:36;;;;;;;14.80;3.80;;;;;;;0.96;70.88;100990.14;52992;1270;1016645;-74
2022/03/07 08:20:11;;;;;;;22.30;5.80;;;;;;;1.00;70.62;100986.52;52942;1270;1016634;-74
2022/03/07 08:22:42;;;;;;;20.70;5.70;;;;;;;1.03;70.87;100985.79;53050;1270;1016087;-73
2022/03/07 08:25:15;;;;;;;15.80;4.70;;;;;;;1.10;70.90;100993.23;53029;1270;1016606;-74
2022/03/07 08:27:46;;;;;;;19.50;7.10;;;;;;;1.15;70.60;100992.67;53010;1270;1016478;-73
2022/03/07 08:30:21;;;;;;;18.50;5.40;;;;;;;1.20;70.28;100988.97;52886;1271;1016806;-74
2022/03/07 08:32:54;;;;;;;17.20;4.60;;;;;;;1.23;70.22;100986.20;53023;1271;1017375;-73
2022/03/07 08:35:25;;;;;;;20.40;7.10;;;;;;;1.29;70.21;100984.23;52829;1273;1016716;-73
2022/03/07 08:37:57;;;;;;;20.10;6.80;;;;;;;1.35;70.19;100979.65;52865;1271;1016384;-74
2022/03/07 08:40:28;;;;;;;20.90;7.20;;;;;;;1.41;70.21;100982.85;52985;1270;1016338;-74
2022/03/07 08:43:00;;;;;;;20.60;7.10;;;;;;;1.49;70.16;100980.52;52878;1270;1016444;-73
2022/03/07 08:45:32;;;;;;;19.30;5.60;;;;;;;1.56;69.84;100976.25;52898;1271;1016209;-74
2022/03/07 08:48:04;;;;;;;19.90;4.60;;;;;;;1.59;69.62;100973.66;52928;1270;1016849;-74
2022/03/07 08:50:36;;;;;;;16.70;6.70;;;;;;;1.61;69.57;100971.75;52872;1271;1015921;-74
2022/03/07 08:53:08;;;;;;;23.70;7.00;;;;;;;1.64;69.67;100970.64;52856;1270;1016490;-73
2022/03/07 08:55:39;;;;;;;16.40;6.70;;;;;;;1.67;69.42;100974.80;52991;1271;1016418;-73
2022/03/07 08:58:10;;;;;;;24.30;6.50;;;;;;;1.72;69.46;100972.17;52865;1272;1016590;-74
2022/03/07 09:00:42;;;;;;;18.90;5.20;;;;;;;1.79;69.42;100969.30;52885;1271;1016467;-74
2022/03/07 09:03:13;;;;;;;18.00;4.70;;;;;;;1.84;69.03;100973.36;52921;1270;1015984;-74
2022/03/07 09:05:45;;;;;;;17.50;5.30;;;;;;;1.82;68.72;100963.52;52966;1271;1016275;-73
2022/03/07 09:08:16;;;;;;;15.50;5.60;;;;;;;1.80;68.77;100961.52;52868;1271;1018403;-74
2022/03/07 09:10:48;;;;;;;16.80;5.50;;;;;;;1.85;69.31;100962.58;53058;1271;1017889;-74
2022/03/07 09:13:20;;;;;;;17.10;5.40;;;;;;;1.95;69.19;100946.39;53016;1270;1016549;-74
2022/03/07 09:15:52;;;;;;;19.50;5.80;;;;;;;2.03;69.02;100945.70;52976;1270;1016379;-74
2022/03/07 09:18:25;;;;;;;18.50;5.10;;;;;;;2.10;69.15;100943.23;52986;1271;1017533;-73
2022/03/07 09:20:57;;;;;;;20.30;4.40;;;;;;;2.13;68.98;100946.10;52956;1270;1018950;-74
2022/03/07 09:23:33;;;;;;;20.30;5.20;;;;;;;2.17;68.80;100939.30;52883;1271;1016377;-73
2022/03/07 09:26:04;;;;;;;13.90;4.20;;;;;;;2.23;69.14;100933.98;52958;1271;1016119;-74
2022/03/07 09:28:36;;;;;;;16.40;5.90;;;;;;;2.31;68.93;100935.42;52967;1271;1016591;-74
2022/03/07 09:31:07;;;;;;;17.40;5.10;;;;;;;2.37;68.87;100941.42;52847;1271;1016694;-73
2022/03/07 09:33:39;;;;;;;16.00;4.80;;;;;;;2.37;68.66;100933.88;52870;1271;1019821;-75
2022/03/07 09:36:12;;;;;;;12.80;3.60;;;;;;;2.38;68.68;100931.97;53027;1270;1017534;-74
2022/03/07 09:38:44;;;;;;;16.90;4.70;;;;;;;2.43;68.77;100919.01;52939;1270;1016777;-73
2022/03/07 09:41:16;;;;;;;16.90;5.50;;;;;;;2.53;68.70;100923.02;52989;1271;1019320;-74
2022/03/07 09:43:48;;;;;;;17.00;5.10;;;;;;;2.59;68.58;100922.58;52880;1271;1016472;-73
2022/03/07 09:46:20;;;;;;;16.90;5.20;;;;;;;2.61;68.36;100923.34;52934;1270;1016659;-73
2022/03/07 09:48:56;;;;;;;14.50;4.90;;;;;;;2.65;68.19;100920.53;52977;1271;1016507;-73
2022/03/07 09:51:27;;;;;;;15.10;4.60;;;;;;;2.72;67.77;100921.10;52877;1270;1015928;-74
2022/03/07 09:54:01;;;;;;;18.20;5.40;;;;;;;2.74;67.20;100923.76;52933;1271;1016554;-74
2022/03/07 09:56:34;;;;;;;19.10;4.90;;;;;;;2.79;67.52;100919.14;52999;1270;1016013;-74
2022/03/07 09:59:10;;;;;;;15.70;4.50;;;;;;;2.83;67.30;100912.80;53025;1270;1016251;-74
2022/03/07 10:01:42;;;;;;;17.30;4.80;;;;;;;2.90;67.72;100909.08;52911;1271;1017141;-74
2022/03/07 10:04:15;;;;;;;15.60;4.60;;;;;;;3.01;67.55;100911.26;52873;1270;1016034;-74
2022/03/07 10:06:52;;;;;;;15.80;4.20;;;;;;;3.05;67.06;100911.68;53007;1271;1016600;-74
2022/03/07 10:09:25;;;;;;;15.20;5.10;;;;;;;3.05;66.81;100912.78;52842;1271;1018861;-74
2022/03/07 10:12:00;;;;;;;14.40;4.60;;;;;;;3.07;66.67;100912.20;52948;1271;1016204;-74
2022/03/07 10:14:42;;;;;;;17.00;4.80;;;;;;;3.10;66.44;100916.50;52942;1271;1018641;-75
2022/03/07 10:17:24;;;;;;;14.70;4.60;;;;;;;3.13;66.66;100916.31;52922;1271;1016566;-75
2022/03/07 10:19:57;;;;;;;13.40;4.60;;;;;;;3.17;66.37;100914.38;52911;1270;1019630;-74
2022/03/07 10:22:29;;;;;;;11.90;2.80;;;;;;;3.21;65.87;100906.84;52941;1272;1016157;-75
2022/03/07 10:25:02;;;;;;;13.30;4.60;;;;;;;3.23;65.63;100916.04;52969;1270;1015974;-74
2022/03/07 10:27:37;;;;;;;15.60;3.60;;;;;;;3.23;65.42;100907.36;52909;1270;1015962;-74
2022/03/07 10:30:14;;;;;;;11.60;3.30;;;;;;;3.26;65.95;100912.67;52991;1271;1016421;-73
2022/03/07 10:32:57;;;;;;;16.10;3.30;;;;;;;3.38;65.38;100909.70;52962;1271;1016530;-75
2022/03/07 10:35:32;;;;;;;13.60;4.10;;;;;;;3.52;65.06;100914.72;53105;1271;1016591;-75
2022/03/07 10:38:06;;;;;;;16.40;3.90;;;;;;;3.70;64.99;100915.89;53233;1271;1016687;-75
2022/03/07 10:40:40;;;;;;;16.80;3.40;;;;;;;3.89;64.82;100918.77;53070;1272;1016119;-75
2022/03/07 10:43:12;;;;;;;10.70;2.30;;;;;;;4.09;63.78;100915.23;53045;1271;1015776;-74
2022/03/07 10:45:51;;;;;;;11.40;2.70;;;;;;;4.21;62.87;100915.52;53006;1271;1016649;-74
2022/03/07 10:48:27;;;;;;;12.40;3.40;;;;;;;4.22;63.51;100907.90;52944;1271;1016533;-74
2022/03/07 10:51:00;;;;;;;11.10;2.90;;;;;;;4.24;63.33;100910.95;52970;1271;1016655;-73
2022/03/07 10:53:42;;;;;;;14.10;3.40;;;;;;;4.25;63.80;100901.95;52938;1271;1016054;-73
2022/03/07 10:56:16;;;;;;;12.50;2.80;;;;;;;4.31;63.78;100904.06;53064;1271;1016607;-74
2022/03/07 10:58:51;;;;;;;10.50;2.80;;;;;;;4.31;63.01;100902.95;53092;1271;1016274;-74
2022/03/07 11:01:34;;;;;;;13.10;2.90;;;;;;;4.33;63.30;100897.06;53001;1271;1016409;-75
2022/03/07 11:04:06;;;;;;;8.50;2.30;;;;;;;4.43;63.71;100890.59;52997;1270;1019502;-74
2022/03/07 11:06:39;;;;;;;8.60;2.60;;;;;;;4.52;63.17;100886.15;52896;1271;1016289;-74
2022/03/07 11:09:10;;;;;;;10.60;2.60;;;;;;;4.59;62.46;100885.07;52902;1271;1016678;-73
2022/03/07 11:11:42;;;;;;;10.10;2.80;;;;;;;4.68;62.94;100880.00;52865;1270;1016515;-74
2022/03/07 11:14:14;;;;;;;17.70;2.70;;;;;;;4.79;62.55;100878.92;52968;1271;1015895;-74
2022/03/07 11:16:50;;;;;;;12.20;2.40;;;;;;;4.84;62.39;100875.59;52935;1272;1016681;-74
2022/03/07 11:19:24;;;;;;;10.00;2.80;;;;;;;4.89;62.59;100875.48;53030;1271;1016218;-74
2022/03/07 11:21:57;;;;;;;11.10;2.90;;;;;;;4.90;62.39;100873.17;52981;1271;1016094;-75